sensor_id;sensor_type;location;lat;lon;timestamp;pressure;altitude;pressure_sealevel;temperature;humidity
15405;BME280;7801;48.124;11.590;2022-07-11T00:02:14;96063.13;;;17.04;65.67
15405;BME280;7801;48.124;11.590;2022-07-11T00:04:43;96065.66;;;16.83;66.44
15405;BME280;7801;48.124;11.590;2022-07-11T00:07:11;96062.69;;;17.02;66.34
15405;BME280;7801;48.124;11.590;2022-07-11T00:09:36;96062.69;;;17.02;66.73
15405;BME280;7801;48.124;11.590;2022-07-11T00:12:05;96056.53;;;16.76;66.98
15405;BME280;7801;48.124;11.590;2022-07-11T00:14:31;96056.66;;;16.71;67.16
15405;BME280;7801;48.124;11.590;2022-07-11T00:16:57;96054.63;;;16.94;67.48
15405;BME280;7801;48.124;11.590;2022-07-11T00:19:24;96051.78;;;16.90;66.39
15405;BME280;7801;48.124;11.590;2022-07-11T00:21:52;96051.16;;;16.93;64.01
15405;BME280;7801;48.124;11.590;2022-07-11T00:24:19;96043.41;;;17.09;65.83
15405;BME280;7801;48.124;11.590;2022-07-11T00:26:47;96048.97;;;16.95;63.70
15405;BME280;7801;48.124;11.590;2022-07-11T00:29:15;96041.69;;;16.87;63.92
15405;BME280;7801;48.124;11.590;2022-07-11T00:31:44;96038.37;;;16.73;66.20
15405;BME280;7801;48.124;11.590;2022-07-11T00:34:10;96047.53;;;16.89;64.48
15405;BME280;7801;48.124;11.590;2022-07-11T00:36:38;96053.53;;;17.03;64.77
15405;BME280;7801;48.124;11.590;2022-07-11T00:39:03;96047.84;;;17.13;64.42
15405;BME280;7801;48.124;11.590;2022-07-11T00:41:32;96046.25;;;17.12;63.99
15405;BME280;7801;48.124;11.590;2022-07-11T00:43:59;96046.09;;;17.09;64.43
15405;BME280;7801;48.124;11.590;2022-07-11T00:46:27;96035.56;;;17.04;63.12
15405;BME280;7801;48.124;11.590;2022-07-11T00:48:56;96039.50;;;16.89;63.27
15405;BME280;7801;48.124;11.590;2022-07-11T00:51:23;96030.19;;;17.04;62.92
15405;BME280;7801;48.124;11.590;2022-07-11T00:53:54;96024.50;;;17.05;63.67
15405;BME280;7801;48.124;11.590;2022-07-11T00:56:21;96026.59;;;16.82;63.69
15405;BME280;7801;48.124;11.590;2022-07-11T00:58:48;96025.59;;;17.04;63.63
15405;BME280;7801;48.124;11.590;2022-07-11T01:01:15;96024.69;;;17.00;61.52
15405;BME280;7801;48.124;11.590;2022-07-11T01:03:41;96024.38;;;16.76;61.57
15405;BME280;7801;48.124;11.590;2022-07-11T01:06:09;96023.72;;;16.88;64.37
15405;BME280;7801;48.124;11.590;2022-07-11T01:08:37;96017.41;;;16.92;64.68
15405;BME280;7801;48.124;11.590;2022-07-11T01:11:20;96017.56;;;17.04;64.68
15405;BME280;7801;48.124;11.590;2022-07-11T01:14:07;96015.37;;;16.80;64.67
15405;BME280;7801;48.124;11.590;2022-07-11T01:16:33;96019.16;;;16.97;65.01
15405;BME280;7801;48.124;11.590;2022-07-11T01:19:00;96021.03;;;17.05;65.43
15405;BME280;7801;48.124;11.590;2022-07-11T01:21:50;96021.50;;;17.07;65.34
15405;BME280;7801;48.124;11.590;2022-07-11T01:24:18;96015.03;;;17.08;65.54
15405;BME280;7801;48.124;11.590;2022-07-11T01:26:51;96013.47;;;16.98;66.07
15405;BME280;7801;48.124;11.590;2022-07-11T01:29:19;96015.50;;;17.10;65.93
15405;BME280;7801;48.124;11.590;2022-07-11T01:31:45;96012.50;;;17.11;65.88
15405;BME280;7801;48.124;11.590;2022-07-11T01:34:12;96016.28;;;17.10;65.11
15405;BME280;7801;48.124;11.590;2022-07-11T01:36:39;96017.41;;;17.09;63.61
15405;BME280;7801;48.124;11.590;2022-07-11T01:39:06;96011.09;;;17.23;65.32
15405;BME280;7801;48.124;11.590;2022-07-11T01:41:33;96001.47;;;17.22;64.84
15405;BME280;7801;48.124;11.590;2022-07-11T01:43:59;96001.78;;;17.20;65.90
15405;BME280;7801;48.124;11.590;2022-07-11T01:46:25;96007.94;;;17.12;64.76
15405;BME280;7801;48.124;11.590;2022-07-11T01:48:55;96007.16;;;17.11;64.35
15405;BME280;7801;48.124;11.590;2022-07-11T01:51:22;96014.87;;;17.13;65.86
15405;BME280;7801;48.124;11.590;2022-07-11T01:53:50;96014.72;;;17.09;65.38
15405;BME280;7801;48.124;11.590;2022-07-11T01:56:19;96007.16;;;17.11;66.10
15405;BME280;7801;48.124;11.590;2022-07-11T01:58:47;96006.03;;;17.12;65.74
15405;BME280;7801;48.124;11.590;2022-07-11T02:01:17;96004.50;;;17.03;66.13
15405;BME280;7801;48.124;11.590;2022-07-11T02:03:44;95999.44;;;17.01;65.81
15405;BME280;7801;48.124;11.590;2022-07-11T02:06:11;96002.75;;;16.98;66.83
15405;BME280;7801;48.124;11.590;2022-07-11T02:08:37;95995.78;;;17.14;67.59
15405;BME280;7801;48.124;11.590;2022-07-11T02:11:07;95991.37;;;17.18;66.79
15405;BME280;7801;48.124;11.590;2022-07-11T02:13:34;95985.69;;;17.20;65.98
15405;BME280;7801;48.124;11.590;2022-07-11T02:15:59;95986.81;;;17.19;64.24
15405;BME280;7801;48.124;11.590;2022-07-11T02:18:26;95989.47;;;17.10;65.51
15405;BME280;7801;48.124;11.590;2022-07-11T02:20:54;95985.22;;;17.18;64.52
15405;BME280;7801;48.124;11.590;2022-07-11T02:23:21;95992.44;;;17.26;65.49
15405;BME280;7801;48.124;11.590;2022-07-11T02:25:47;95989.28;;;17.33;65.25
15405;BME280;7801;48.124;11.590;2022-07-11T02:28:16;95987.59;;;17.20;64.70
15405;BME280;7801;48.124;11.590;2022-07-11T02:30:44;95984.44;;;17.09;64.67
15405;BME280;7801;48.124;11.590;2022-07-11T02:33:12;95990.91;;;17.08;64.16
15405;BME280;7801;48.124;11.590;2022-07-11T02:35:46;95989.16;;;17.21;65.59
15405;BME280;7801;48.124;11.590;2022-07-11T02:38:13;95985.22;;;17.18;65.06
15405;BME280;7801;48.124;11.590;2022-07-11T02:40:40;95979.84;;;17.18;66.69
15405;BME280;7801;48.124;11.590;2022-07-11T02:43:07;95984.91;;;17.20;66.15
15405;BME280;7801;48.124;11.590;2022-07-11T02:45:34;95989.78;;;17.17;65.15
15405;BME280;7801;48.124;11.590;2022-07-11T02:48:01;95990.88;;;17.25;65.81
15405;BME280;7801;48.124;11.590;2022-07-11T02:50:28;95990.09;;;17.25;65.07
15405;BME280;7801;48.124;11.590;2022-07-11T02:52:57;95989.31;;;17.24;65.43
15405;BME280;7801;48.124;11.590;2022-07-11T02:55:25;95982.97;;;17.29;65.44
15405;BME280;7801;48.124;11.590;2022-07-11T02:57:51;95987.75;;;17.23;64.63
15405;BME280;7801;48.124;11.590;2022-07-11T03:00:17;95988.53;;;17.15;63.73
15405;BME280;7801;48.124;11.590;2022-07-11T03:02:43;95991.69;;;17.08;63.84
15405;BME280;7801;48.124;11.590;2022-07-11T03:05:09;95980.97;;;17.08;64.80
15405;BME280;7801;48.124;11.590;2022-07-11T03:07:36;95989.16;;;17.21;65.78
15405;BME280;7801;48.124;11.590;2022-07-11T03:10:02;95979.84;;;17.18;64.57
15405;BME280;7801;48.124;11.590;2022-07-11T03:12:29;95983.19;;;17.15;64.17
15405;BME280;7801;48.124;11.590;2022-07-11T03:14:58;95981.12;;;17.12;65.97
15405;BME280;7801;48.124;11.590;2022-07-11T03:17:29;95979.84;;;17.18;65.80
15405;BME280;7801;48.124;11.590;2022-07-11T03:19:56;95983.75;;;17.29;65.23
15405;BME280;7801;48.124;11.590;2022-07-11T03:22:24;95985.81;;;17.32;64.91
15405;BME280;7801;48.124;11.590;2022-07-11T03:24:49;95986.97;;;17.23;64.06
15405;BME280;7801;48.124;11.590;2022-07-11T03:27:19;95982.53;;;17.09;63.60
15405;BME280;7801;48.124;11.590;2022-07-11T03:29:45;95983.00;;;17.20;64.64
15405;BME280;7801;48.124;11.590;2022-07-11T03:32:13;95979.06;;;17.17;61.78
15405;BME280;7801;48.124;11.590;2022-07-11T03:34:41;95975.63;;;17.00;61.82
15405;BME280;7801;48.124;11.590;2022-07-11T03:37:27;95982.25;;;17.02;65.55
15405;BME280;7801;48.124;11.590;2022-07-11T03:39:53;95987.91;;;17.09;66.30
15405;BME280;7801;48.124;11.590;2022-07-11T03:42:19;95985.22;;;17.09;64.77
15405;BME280;7801;48.124;11.590;2022-07-11T03:44:45;95988.22;;;17.16;64.32
15405;BME280;7801;48.124;11.590;2022-07-11T03:47:11;95991.37;;;17.10;64.67
15405;BME280;7801;48.124;11.590;2022-07-11T03:49:41;95983.50;;;17.13;62.62
15405;BME280;7801;48.124;11.590;2022-07-11T03:52:06;95979.59;;;17.02;61.38
15405;BME280;7801;48.124;11.590;2022-07-11T03:54:39;95984.75;;;17.07;63.00
15405;BME280;7801;48.124;11.590;2022-07-11T03:57:09;95981.16;;;16.95;64.41
15405;BME280;7801;48.124;11.590;2022-07-11T03:59:36;95973.59;;;16.97;64.30
15405;BME280;7801;48.124;11.590;2022-07-11T04:02:02;95973.12;;;17.03;63.83
15405;BME280;7801;48.124;11.590;2022-07-11T04:04:28;95981.63;;;16.97;63.36
15405;BME280;7801;48.124;11.590;2022-07-11T04:06:54;95982.69;;;17.04;63.79
15405;BME280;7801;48.124;11.590;2022-07-11T04:09:24;95987.31;;;17.04;63.92
15405;BME280;7801;48.124;11.590;2022-07-11T04:11:52;95983.50;;;17.13;64.47
15405;BME280;7801;48.124;11.590;2022-07-11T04:14:18;95978.63;;;16.98;64.51
15405;BME280;7801;48.124;11.590;2022-07-11T04:16:44;95988.56;;;16.98;63.05
15405;BME280;7801;48.124;11.590;2022-07-11T04:19:12;95982.38;;;17.06;65.45
15405;BME280;7801;48.124;11.590;2022-07-11T04:21:38;95980.69;;;17.01;63.38
15405;BME280;7801;48.124;11.590;2022-07-11T04:24:04;95985.84;;;17.06;64.54
15405;BME280;7801;48.124;11.590;2022-07-11T04:26:32;95989.00;;;17.08;63.78
15405;BME280;7801;48.124;11.590;2022-07-11T04:28:59;95998.16;;;17.07;62.12
15405;BME280;7801;48.124;11.590;2022-07-11T04:31:25;95981.91;;;17.12;63.10
15405;BME280;7801;48.124;11.590;2022-07-11T04:33:51;95983.22;;;16.98;62.31
15405;BME280;7801;48.124;11.590;2022-07-11T04:36:18;95986.66;;;17.15;63.78
15405;BME280;7801;48.124;11.590;2022-07-11T04:38:47;95988.22;;;17.16;64.36
15405;BME280;7801;48.124;11.590;2022-07-11T04:41:14;95981.59;;;17.05;58.40
15405;BME280;7801;48.124;11.590;2022-07-11T04:43:40;95982.25;;;17.02;61.48
15405;BME280;7801;48.124;11.590;2022-07-11T04:46:09;95995.34;;;17.04;62.92
15405;BME280;7801;48.124;11.590;2022-07-11T04:48:44;95992.03;;;16.98;63.46
15405;BME280;7801;48.124;11.590;2022-07-11T04:51:10;95989.31;;;17.07;63.94
15405;BME280;7801;48.124;11.590;2022-07-11T04:53:38;95991.69;;;17.17;63.57
15405;BME280;7801;48.124;11.590;2022-07-11T04:56:08;96004.00;;;17.09;62.98
15405;BME280;7801;48.124;11.590;2022-07-11T04:58:34;95991.69;;;17.08;60.92
15405;BME280;7801;48.124;11.590;2022-07-11T05:01:00;95993.44;;;17.13;62.91
15405;BME280;7801;48.124;11.590;2022-07-11T05:03:28;95992.50;;;17.00;59.57
15405;BME280;7801;48.124;11.590;2022-07-11T05:05:54;95993.28;;;17.09;65.32
15405;BME280;7801;48.124;11.590;2022-07-11T05:08:21;95995.94;;;17.09;64.02
15405;BME280;7801;48.124;11.590;2022-07-11T05:10:47;95998.16;;;17.07;62.19
15405;BME280;7801;48.124;11.590;2022-07-11T05:13:15;95996.41;;;17.20;63.40
15405;BME280;7801;48.124;11.590;2022-07-11T05:15:42;96001.75;;;17.29;63.89
15405;BME280;7801;48.124;11.590;2022-07-11T05:18:08;96000.81;;;17.33;63.24
15405;BME280;7801;48.124;11.590;2022-07-11T05:20:36;96002.22;;;17.31;64.31
15405;BME280;7801;48.124;11.590;2022-07-11T05:23:03;96006.47;;;17.32;63.85
15405;BME280;7801;48.124;11.590;2022-07-11T05:25:29;96006.31;;;17.45;64.92
15405;BME280;7801;48.124;11.590;2022-07-11T05:27:55;96013.41;;;17.41;62.93
15405;BME280;7801;48.124;11.590;2022-07-11T05:30:22;96012.94;;;17.39;60.61
15405;BME280;7801;48.124;11.590;2022-07-11T05:32:51;96012.63;;;17.32;63.24
15405;BME280;7801;48.124;11.590;2022-07-11T05:35:18;96014.06;;;17.30;60.76
15405;BME280;7801;48.124;11.590;2022-07-11T05:37:44;96016.25;;;17.36;64.65
15405;BME280;7801;48.124;11.590;2022-07-11T05:40:14;96013.91;;;17.35;61.23
15405;BME280;7801;48.124;11.590;2022-07-11T05:42:41;96027.66;;;17.25;60.63
15405;BME280;7801;48.124;11.590;2022-07-11T05:45:12;96017.53;;;17.30;60.54
15405;BME280;7801;48.124;11.590;2022-07-11T05:47:40;96019.72;;;17.37;64.52
15405;BME280;7801;48.124;11.590;2022-07-11T05:50:05;96020.84;;;17.36;62.37
15405;BME280;7801;48.124;11.590;2022-07-11T05:52:31;96018.78;;;17.33;60.94
15405;BME280;7801;48.124;11.590;2022-07-11T05:54:59;96017.22;;;17.40;60.10
15405;BME280;7801;48.124;11.590;2022-07-11T05:57:26;96018.78;;;17.33;63.04
15405;BME280;7801;48.124;11.590;2022-07-11T05:59:52;96024.63;;;17.43;63.79
15405;BME280;7801;48.124;11.590;2022-07-11T06:02:18;96015.91;;;17.55;60.71
15405;BME280;7801;48.124;11.590;2022-07-11T06:04:48;96018.41;;;17.60;64.90
15405;BME280;7801;48.124;11.590;2022-07-11T06:07:15;96015.75;;;17.51;61.89
15405;BME280;7801;48.124;11.590;2022-07-11T06:10:00;96021.47;;;17.33;61.53
15405;BME280;7801;48.124;11.590;2022-07-11T06:12:26;96014.53;;;17.32;60.64
15405;BME280;7801;48.124;11.590;2022-07-11T06:14:52;96015.16;;;17.37;62.24
15405;BME280;7801;48.124;11.590;2022-07-11T06:17:17;96013.59;;;17.36;61.69
15405;BME280;7801;48.124;11.590;2022-07-11T06:19:42;96011.69;;;17.37;60.33
15405;BME280;7801;48.124;11.590;2022-07-11T06:22:07;96007.72;;;17.43;60.01
15405;BME280;7801;48.124;11.590;2022-07-11T06:24:34;96001.22;;;17.52;59.96
15405;BME280;7801;48.124;11.590;2022-07-11T06:27:03;96013.69;;;17.57;61.22
15405;BME280;7801;48.124;11.590;2022-07-11T06:29:29;96007.53;;;17.65;62.79
15405;BME280;7801;48.124;11.590;2022-07-11T06:31:56;96010.50;;;17.72;59.72
15405;BME280;7801;48.124;11.590;2022-07-11T06:34:23;96010.31;;;17.77;62.18
15405;BME280;7801;48.124;11.590;2022-07-11T06:36:50;96007.41;;;18.00;62.06
15405;BME280;7801;48.124;11.590;2022-07-11T06:39:17;96003.78;;;17.96;61.08
15405;BME280;7801;48.124;11.590;2022-07-11T06:41:42;96002.97;;;17.95;60.58
15405;BME280;7801;48.124;11.590;2022-07-11T06:44:11;96006.56;;;18.08;58.68
15405;BME280;7801;48.124;11.590;2022-07-11T06:46:41;96011.25;;;18.19;60.01
15405;BME280;7801;48.124;11.590;2022-07-11T06:49:08;96013.44;;;18.26;58.32
15405;BME280;7801;48.124;11.590;2022-07-11T06:51:36;96010.66;;;18.35;58.53
15405;BME280;7801;48.124;11.590;2022-07-11T06:54:04;96010.03;;;18.38;60.11
15405;BME280;7801;48.124;11.590;2022-07-11T06:56:34;96009.50;;;18.44;57.83
15405;BME280;7801;48.124;11.590;2022-07-11T06:58:59;96005.91;;;18.40;55.58
15405;BME280;7801;48.124;11.590;2022-07-11T07:01:28;96007.16;;;18.43;56.44
15405;BME280;7801;48.124;11.590;2022-07-11T07:03:55;96007.66;;;18.36;56.12
15405;BME280;7801;48.124;11.590;2022-07-11T07:06:21;96010.53;;;18.31;55.30
15405;BME280;7801;48.124;11.590;2022-07-11T07:08:50;96012.53;;;18.43;58.40
15405;BME280;7801;48.124;11.590;2022-07-11T07:11:17;96010.94;;;18.12;57.04
15405;BME280;7801;48.124;11.590;2022-07-11T07:13:45;96002.28;;;18.36;56.18
15405;BME280;7801;48.124;11.590;2022-07-11T07:16:12;96017.13;;;18.42;56.59
15405;BME280;7801;48.124;11.590;2022-07-11T07:18:39;96016.66;;;18.40;54.29
15405;BME280;7801;48.124;11.590;2022-07-11T07:21:12;96018.50;;;18.48;55.27
15405;BME280;7801;48.124;11.590;2022-07-11T07:23:38;96012.53;;;18.43;55.49
15405;BME280;7801;48.124;11.590;2022-07-11T07:26:08;96011.75;;;18.42;55.24
15405;BME280;7801;48.124;11.590;2022-07-11T07:28:36;96005.41;;;18.17;55.89
15405;BME280;7801;48.124;11.590;2022-07-11T07:31:08;96015.41;;;18.38;58.00
15405;BME280;7801;48.124;11.590;2022-07-11T07:33:36;96006.44;;;18.54;58.17
15405;BME280;7801;48.124;11.590;2022-07-11T07:36:05;96011.75;;;18.42;56.33
15405;BME280;7801;48.124;11.590;2022-07-11T07:38:33;96011.28;;;18.40;55.02
15405;BME280;7801;48.124;11.590;2022-07-11T07:41:00;96007.75;;;18.48;56.22
15405;BME280;7801;48.124;11.590;2022-07-11T07:43:26;96011.16;;;18.58;55.94
15405;BME280;7801;48.124;11.590;2022-07-11T07:45:53;96011.59;;;18.68;56.52
15405;BME280;7801;48.124;11.590;2022-07-11T07:48:20;96008.97;;;18.80;56.01
15405;BME280;7801;48.124;11.590;2022-07-11T07:50:48;96007.72;;;18.78;55.56
15405;BME280;7801;48.124;11.590;2022-07-11T07:53:20;96012.09;;;18.82;55.20
15405;BME280;7801;48.124;11.590;2022-07-11T07:55:47;96003.41;;;18.85;54.03
15405;BME280;7801;48.124;11.590;2022-07-11T07:58:14;96006.22;;;18.89;54.62
15405;BME280;7801;48.124;11.590;2022-07-11T08:00:45;96004.63;;;18.88;55.50
15405;BME280;7801;48.124;11.590;2022-07-11T08:03:30;96006.91;;;18.98;55.36
15405;BME280;7801;48.124;11.590;2022-07-11T08:05:57;96011.50;;;18.98;55.45
15405;BME280;7801;48.124;11.590;2022-07-11T08:08:25;96005.94;;;18.82;55.84
15405;BME280;7801;48.124;11.590;2022-07-11T08:10:55;95995.00;;;18.87;57.38
15405;BME280;7801;48.124;11.590;2022-07-11T08:13:21;95994.88;;;18.83;58.03
15405;BME280;7801;48.124;11.590;2022-07-11T08:15:48;96012.06;;;18.91;55.81
15405;BME280;7801;48.124;11.590;2022-07-11T08:18:15;96005.47;;;18.80;56.51
15405;BME280;7801;48.124;11.590;2022-07-11T08:20:45;96008.91;;;18.89;58.27
15405;BME280;7801;48.124;11.590;2022-07-11T08:23:11;96002.84;;;18.92;56.69
15405;BME280;7801;48.124;11.590;2022-07-11T08:25:41;96009.13;;;18.96;56.58
15405;BME280;7801;48.124;11.590;2022-07-11T08:28:08;96006.09;;;18.85;56.85
15405;BME280;7801;48.124;11.590;2022-07-11T08:30:35;96007.56;;;18.95;57.56
15405;BME280;7801;48.124;11.590;2022-07-11T08:33:03;96012.06;;;18.91;57.27
15405;BME280;7801;48.124;11.590;2022-07-11T08:35:30;96008.75;;;19.06;57.85
15405;BME280;7801;48.124;11.590;2022-07-11T08:37:56;96012.13;;;19.15;58.36
15405;BME280;7801;48.124;11.590;2022-07-11T08:40:21;96013.00;;;19.07;57.53
15405;BME280;7801;48.124;11.590;2022-07-11T08:42:48;96005.91;;;19.23;57.28
15405;BME280;7801;48.124;11.590;2022-07-11T08:45:16;96009.84;;;19.26;56.02
15405;BME280;7801;48.124;11.590;2022-07-11T08:47:45;96007.72;;;19.32;54.00
15405;BME280;7801;48.124;11.590;2022-07-11T08:50:13;96016.69;;;19.36;53.60
15405;BME280;7801;48.124;11.590;2022-07-11T08:52:39;96003.19;;;19.23;54.99
15405;BME280;7801;48.124;11.590;2022-07-11T08:55:07;96010.97;;;19.04;53.43
15405;BME280;7801;48.124;11.590;2022-07-11T08:57:37;96014.06;;;18.94;55.50
15405;BME280;7801;48.124;11.590;2022-07-11T09:00:10;96008.28;;;19.04;54.12
15405;BME280;7801;48.124;11.590;2022-07-11T09:02:41;96008.97;;;19.13;53.44
15405;BME280;7801;48.124;11.590;2022-07-11T09:05:10;96003.34;;;19.27;53.46
15405;BME280;7801;48.124;11.590;2022-07-11T09:07:47;96002.22;;;19.28;53.39
15405;BME280;7801;48.124;11.590;2022-07-11T09:10:35;95999.87;;;19.39;52.92
15405;BME280;7801;48.124;11.590;2022-07-11T09:13:10;95995.47;;;19.34;54.46
15405;BME280;7801;48.124;11.590;2022-07-11T09:15:46;95995.53;;;19.46;55.03
15405;BME280;7801;48.124;11.590;2022-07-11T09:18:40;95998.69;;;19.48;53.82
15405;BME280;7801;48.124;11.590;2022-07-11T09:21:13;96004.91;;;19.61;53.30
15405;BME280;7801;48.124;11.590;2022-07-11T09:24:07;96003.44;;;19.51;53.28
15405;BME280;7801;48.124;11.590;2022-07-11T09:26:51;95990.66;;;19.61;54.26
15405;BME280;7801;48.124;11.590;2022-07-11T09:29:21;95997.28;;;19.63;53.25
15405;BME280;7801;48.124;11.590;2022-07-11T09:31:50;95999.72;;;19.56;51.28
15405;BME280;7801;48.124;11.590;2022-07-11T09:34:20;95996.97;;;19.44;53.15
15405;BME280;7801;48.124;11.590;2022-07-11T09:36:51;95996.31;;;19.47;54.57
15405;BME280;7801;48.124;11.590;2022-07-11T09:39:36;95995.75;;;19.41;52.60
15405;BME280;7801;48.124;11.590;2022-07-11T09:42:03;95999.19;;;19.30;53.99
15405;BME280;7801;48.124;11.590;2022-07-11T09:44:30;96001.00;;;19.38;52.57
15405;BME280;7801;48.124;11.590;2022-07-11T09:47:10;96003.53;;;19.22;53.87
15405;BME280;7801;48.124;11.590;2022-07-11T09:49:39;96000.06;;;19.34;52.83
15405;BME280;7801;48.124;11.590;2022-07-11T09:52:16;95998.19;;;19.34;52.44
15405;BME280;7801;48.124;11.590;2022-07-11T09:55:01;96006.84;;;19.40;53.99
15405;BME280;7801;48.124;11.590;2022-07-11T09:57:38;96004.28;;;19.43;53.82
15405;BME280;7801;48.124;11.590;2022-07-11T10:00:09;95999.72;;;19.56;53.48
15405;BME280;7801;48.124;11.590;2022-07-11T10:02:37;95995.91;;;19.57;52.00
15405;BME280;7801;48.124;11.590;2022-07-11T10:05:06;95986.88;;;19.41;52.43
15405;BME280;7801;48.124;11.590;2022-07-11T10:07:33;95999.94;;;19.51;54.49
15405;BME280;7801;48.124;11.590;2022-07-11T10:10:01;96000.63;;;19.60;53.46
15405;BME280;7801;48.124;11.590;2022-07-11T10:12:33;96009.41;;;19.69;55.82
15405;BME280;7801;48.124;11.590;2022-07-11T10:15:10;95993.50;;;19.88;55.25
15405;BME280;7801;48.124;11.590;2022-07-11T10:23:24;96003.03;;;20.35;55.03
15405;BME280;7801;48.124;11.590;2022-07-11T10:26:03;96001.13;;;20.47;55.31
15405;BME280;7801;48.124;11.590;2022-07-11T10:28:46;95996.75;;;20.55;53.73
15405;BME280;7801;48.124;11.590;2022-07-11T10:31:25;96010.66;;;20.57;54.73
15405;BME280;7801;48.124;11.590;2022-07-11T10:34:05;96007.59;;;20.58;53.50
15405;BME280;7801;48.124;11.590;2022-07-11T10:36:33;96007.63;;;20.46;53.30
15405;BME280;7801;48.124;11.590;2022-07-11T10:39:18;96013.47;;;20.48;53.08
15405;BME280;7801;48.124;11.590;2022-07-11T10:41:50;96006.28;;;20.52;52.01
15405;BME280;7801;48.124;11.590;2022-07-11T10:44:18;96010.41;;;20.62;51.23
15405;BME280;7801;48.124;11.590;2022-07-11T10:46:45;96017.41;;;20.51;52.31
15405;BME280;7801;48.124;11.590;2022-07-11T10:52:08;96017.19;;;20.44;52.54
15405;BME280;7801;48.124;11.590;2022-07-11T10:54:49;96011.00;;;20.43;53.48
15405;BME280;7801;48.124;11.590;2022-07-11T10:57:43;96008.44;;;20.47;54.09
15405;BME280;7801;48.124;11.590;2022-07-11T11:00:19;96019.78;;;20.52;52.71
15405;BME280;7801;48.124;11.590;2022-07-11T11:05:53;96019.19;;;20.59;50.46
15405;BME280;7801;48.124;11.590;2022-07-11T11:16:43;96006.47;;;20.59;52.56
15405;BME280;7801;48.124;11.590;2022-07-11T11:22:18;96003.09;;;20.63;53.22
15405;BME280;7801;48.124;11.590;2022-07-11T11:24:46;95998.72;;;20.70;51.67
15405;BME280;7801;48.124;11.590;2022-07-11T11:27:18;96004.31;;;20.77;53.31
15405;BME280;7801;48.124;11.590;2022-07-11T11:30:07;96003.94;;;20.91;51.55
15405;BME280;7801;48.124;11.590;2022-07-11T11:32:42;96004.63;;;20.88;53.46
15405;BME280;7801;48.124;11.590;2022-07-11T11:35:10;95999.47;;;20.83;51.89
15405;BME280;7801;48.124;11.590;2022-07-11T11:37:36;96000.91;;;20.92;54.65
15405;BME280;7801;48.124;11.590;2022-07-11T11:40:03;96011.09;;;20.99;50.79
15405;BME280;7801;48.124;11.590;2022-07-11T11:42:29;96009.44;;;20.95;51.71
15405;BME280;7801;48.124;11.590;2022-07-11T11:45:04;96016.19;;;20.88;51.73
15405;BME280;7801;48.124;11.590;2022-07-11T11:47:30;96007.25;;;20.72;51.57
15405;BME280;7801;48.124;11.590;2022-07-11T11:49:58;96014.56;;;20.72;52.40
15405;BME280;7801;48.124;11.590;2022-07-11T11:52:28;96009.06;;;20.68;53.83
15405;BME280;7801;48.124;11.590;2022-07-11T11:54:57;96011.75;;;20.68;53.70
15405;BME280;7801;48.124;11.590;2022-07-11T11:57:27;96019.72;;;20.65;53.57
15405;BME280;7801;48.124;11.590;2022-07-11T11:59:54;96009.41;;;20.67;53.64
15405;BME280;7801;48.124;11.590;2022-07-11T12:02:27;96014.91;;;20.70;53.09
15405;BME280;7801;48.124;11.590;2022-07-11T12:04:55;96004.84;;;20.83;52.42
15405;BME280;7801;48.124;11.590;2022-07-11T12:07:29;96007.81;;;20.78;53.29
15405;BME280;7801;48.124;11.590;2022-07-11T12:09:57;96005.78;;;20.75;52.96
15405;BME280;7801;48.124;11.590;2022-07-11T12:12:36;96013.09;;;20.74;54.66
15405;BME280;7801;48.124;11.590;2022-07-11T12:15:30;96014.50;;;20.84;52.78
15405;BME280;7801;48.124;11.590;2022-07-11T12:18:02;96019.56;;;20.85;52.53
15405;BME280;7801;48.124;11.590;2022-07-11T12:20:41;96016.97;;;20.89;52.85
15405;BME280;7801;48.124;11.590;2022-07-11T12:23:18;96010.22;;;20.95;52.80
15405;BME280;7801;48.124;11.590;2022-07-11T12:25:51;96015.31;;;20.84;52.82
15405;BME280;7801;48.124;11.590;2022-07-11T12:28:35;96009.34;;;20.79;51.99
15405;BME280;7801;48.124;11.590;2022-07-11T12:31:00;96005.53;;;20.80;52.56
15405;BME280;7801;48.124;11.590;2022-07-11T12:33:51;96008.03;;;20.73;52.62
15405;BME280;7801;48.124;11.590;2022-07-11T12:36:32;95997.44;;;20.80;54.71
15405;BME280;7801;48.124;11.590;2022-07-11T12:39:30;96001.63;;;20.77;53.37
15405;BME280;7801;48.124;11.590;2022-07-11T12:41:57;96006.44;;;20.84;53.95
15405;BME280;7801;48.124;11.590;2022-07-11T12:44:35;96001.13;;;20.87;54.42
15405;BME280;7801;48.124;11.590;2022-07-11T12:47:24;95991.97;;;20.76;54.33
15405;BME280;7801;48.124;11.590;2022-07-11T12:49:57;95994.41;;;20.81;54.67
15405;BME280;7801;48.124;11.590;2022-07-11T12:52:23;95988.38;;;21.00;52.24
15405;BME280;7801;48.124;11.590;2022-07-11T12:55:01;95993.25;;;20.95;53.33
15405;BME280;7801;48.124;11.590;2022-07-11T12:57:28;95989.44;;;20.96;54.67
15405;BME280;7801;48.124;11.590;2022-07-11T12:59:55;95996.06;;;20.98;55.15
15405;BME280;7801;48.124;11.590;2022-07-11T13:02:26;95994.16;;;20.99;56.84
15405;BME280;7801;48.124;11.590;2022-07-11T13:05:00;95988.53;;;20.91;54.57
15405;BME280;7801;48.124;11.590;2022-07-11T13:07:35;95985.75;;;20.88;53.69
15405;BME280;7801;48.124;11.590;2022-07-11T13:10:24;95981.03;;;20.85;53.20
15405;BME280;7801;48.124;11.590;2022-07-11T13:12:54;95990.91;;;20.93;56.08
15405;BME280;7801;48.124;11.590;2022-07-11T13:15:21;95979.22;;;20.89;55.18
15405;BME280;7801;48.124;11.590;2022-07-11T13:17:56;95980.09;;;20.93;55.04
15405;BME280;7801;48.124;11.590;2022-07-11T13:20:24;95972.12;;;20.97;56.10
15405;BME280;7801;48.124;11.590;2022-07-11T13:22:51;95974.59;;;20.89;53.88
15405;BME280;7801;48.124;11.590;2022-07-11T13:25:19;95967.50;;;20.97;56.21
15405;BME280;7801;48.124;11.590;2022-07-11T13:27:48;95966.63;;;20.93;56.20
15405;BME280;7801;48.124;11.590;2022-07-11T13:30:17;95973.12;;;20.92;54.65
15405;BME280;7801;48.124;11.590;2022-07-11T13:32:47;95969.09;;;20.86;54.15
15405;BME280;7801;48.124;11.590;2022-07-11T13:35:19;95974.72;;;20.93;52.31
15405;BME280;7801;48.124;11.590;2022-07-11T13:37:59;95977.19;;;20.86;52.60